createdAt,value
2018-11-10T00:02:22.337Z,92.10
2018-11-10T00:04:50.484Z,91.70
2018-11-10T00:07:18.697Z,91.50
2018-11-10T00:09:46.877Z,90.30
2018-11-10T00:12:15.020Z,91.70
2018-11-10T00:14:43.253Z,90.60
2018-11-10T00:17:11.420Z,90.70
2018-11-10T00:19:39.547Z,90.00
2018-11-10T00:22:07.665Z,87.40
2018-11-10T00:24:35.830Z,86.70
2018-11-10T00:27:03.955Z,87.70
2018-11-10T00:29:32.107Z,86.90
2018-11-10T00:32:00.285Z,86.10
2018-11-10T00:34:28.472Z,86.60
2018-11-10T00:36:56.710Z,86.30
2018-11-10T00:39:24.878Z,89.80
2018-11-10T00:41:53.037Z,89.30
2018-11-10T00:44:21.181Z,86.00
2018-11-10T00:46:49.311Z,89.20
2018-11-10T00:49:24.051Z,88.90
2018-11-10T00:51:52.203Z,90.20
2018-11-10T00:54:20.343Z,90.90
2018-11-10T00:56:48.463Z,92.10
2018-11-10T00:59:16.619Z,92.10
2018-11-10T01:01:44.761Z,92.70
2018-11-10T01:04:12.908Z,92.60
2018-11-10T01:06:41.053Z,92.00
2018-11-10T01:09:09.692Z,92.30
2018-11-10T01:11:37.840Z,91.80
2018-11-10T01:14:06.597Z,91.50
2018-11-10T01:16:34.780Z,91.80
2018-11-10T01:19:02.924Z,92.30
2018-11-10T01:21:31.067Z,92.60
2018-11-10T01:23:59.221Z,93.20
2018-11-10T01:26:27.420Z,92.30
2018-11-10T01:28:55.600Z,91.70
2018-11-10T01:31:23.742Z,93.30
2018-11-10T01:33:51.890Z,92.60
2018-11-10T01:36:20.091Z,92.90
2018-11-10T01:38:48.228Z,92.60
2018-11-10T01:41:16.400Z,92.00
2018-11-10T01:43:44.545Z,91.00
2018-11-10T01:46:12.713Z,90.50
2018-11-10T01:48:40.987Z,93.30
2018-11-10T01:51:09.152Z,92.60
2018-11-10T01:53:37.293Z,92.90
2018-11-10T01:56:05.745Z,93.80
2018-11-10T01:58:33.889Z,94.40
2018-11-10T02:01:02.073Z,93.40
2018-11-10T02:03:30.247Z,93.20
2018-11-10T02:08:26.481Z,92.80
2018-11-10T02:10:54.665Z,92.50
2018-11-10T02:13:22.811Z,92.50
2018-11-10T02:15:50.977Z,92.50
2018-11-10T02:18:19.120Z,92.70
2018-11-10T02:20:47.300Z,89.90
2018-11-10T02:23:15.521Z,90.30
2018-11-10T02:25:43.683Z,91.20
2018-11-10T02:28:11.812Z,91.30
2018-11-10T02:30:39.969Z,90.60
2018-11-10T02:33:08.115Z,90.20
2018-11-10T02:35:36.320Z,90.60
2018-11-10T02:38:04.612Z,89.60
2018-11-10T02:40:32.758Z,89.80
2018-11-10T02:43:00.962Z,89.20
2018-11-10T02:45:29.188Z,88.30
2018-11-10T02:47:57.355Z,87.10
2018-11-10T02:50:25.565Z,86.00
2018-11-10T02:52:53.762Z,84.20
2018-11-10T02:55:21.880Z,84.00
2018-11-10T02:57:50.048Z,80.50
2018-11-10T03:00:18.196Z,81.70
2018-11-10T03:02:46.323Z,84.40
2018-11-10T03:05:14.436Z,84.50
2018-11-10T03:07:42.582Z,82.60
2018-11-10T03:10:11.507Z,83.30
2018-11-10T03:12:40.255Z,82.30
2018-11-10T03:15:09.221Z,82.40
2018-11-10T03:17:37.784Z,81.00
2018-11-10T03:20:07.922Z,80.90
2018-11-10T03:22:36.069Z,79.10
2018-11-10T03:25:04.363Z,78.70
2018-11-10T03:27:32.505Z,80.00
2018-11-10T03:30:00.653Z,78.40
2018-11-10T03:32:28.824Z,76.70
2018-11-10T03:34:56.980Z,76.60
2018-11-10T03:37:25.180Z,76.30
2018-11-10T03:39:53.324Z,75.20
2018-11-10T03:42:21.509Z,76.60
2018-11-10T03:44:49.648Z,76.10
2018-11-10T03:47:17.781Z,71.10
2018-11-10T03:49:45.918Z,71.80
2018-11-10T03:54:41.944Z,67.90
2018-11-10T03:57:10.077Z,68.70
2018-11-10T03:59:38.217Z,70.90
2018-11-10T04:02:06.408Z,70.10
2018-11-10T04:04:34.590Z,72.00
2018-11-10T04:07:02.804Z,73.80
2018-11-10T04:09:30.981Z,72.10
2018-11-10T04:11:59.114Z,70.90
2018-11-10T04:14:27.284Z,71.10
2018-11-10T04:16:55.595Z,67.50
2018-11-10T04:19:23.748Z,66.70
2018-11-10T04:21:51.890Z,68.20
2018-11-10T04:24:20.019Z,67.60
2018-11-10T04:26:48.146Z,67.80
2018-11-10T04:29:16.295Z,67.90
2018-11-10T04:31:44.479Z,66.50
2018-11-10T04:34:13.349Z,67.10
2018-11-10T04:36:41.538Z,64.80
2018-11-10T04:39:09.690Z,66.90
2018-11-10T04:41:37.836Z,65.70
2018-11-10T04:44:06.820Z,66.10
2018-11-10T04:46:34.978Z,64.40
2018-11-10T04:49:03.191Z,65.50
2018-11-10T04:53:59.359Z,64.90
2018-11-10T04:56:27.565Z,64.90
2018-11-10T04:58:55.714Z,64.30
2018-11-10T05:01:23.886Z,65.40
2018-11-10T05:03:52.061Z,62.00
2018-11-10T05:06:20.181Z,61.30
2018-11-10T05:08:48.299Z,62.30
2018-11-10T05:11:16.420Z,59.20
2018-11-10T05:13:44.635Z,59.90
2018-11-10T05:16:12.782Z,60.70
2018-11-10T05:18:40.922Z,61.50
2018-11-10T05:21:09.042Z,63.10
2018-11-10T05:23:37.184Z,67.00
2018-11-10T05:26:05.338Z,68.30
2018-11-10T05:28:33.473Z,67.80
2018-11-10T05:31:01.669Z,67.10
2018-11-10T05:33:29.832Z,69.50
2018-11-10T05:35:57.975Z,67.00
2018-11-10T05:38:26.111Z,66.20
2018-11-10T05:40:54.286Z,66.90
2018-11-10T05:43:22.432Z,67.80
2018-11-10T05:45:50.601Z,67.70
2018-11-10T05:48:18.732Z,66.00
2018-11-10T05:50:46.880Z,65.90
2018-11-10T05:53:15.948Z,66.90
2018-11-10T05:55:44.159Z,67.30
2018-11-10T05:58:12.297Z,69.30
2018-11-10T06:00:40.440Z,68.40
2018-11-10T06:03:08.569Z,68.90
2018-11-10T06:05:36.711Z,66.80
2018-11-10T06:08:05.110Z,66.70
2018-11-10T06:10:33.441Z,69.40
2018-11-10T06:13:01.623Z,68.20
2018-11-10T06:15:29.780Z,71.40
2018-11-10T06:17:57.948Z,70.00
2018-11-10T06:20:26.116Z,73.10
2018-11-10T06:22:54.239Z,76.50
2018-11-10T06:25:22.372Z,81.20
2018-11-10T06:27:50.521Z,83.50
2018-11-10T06:30:18.659Z,86.90
2018-11-10T06:32:46.938Z,90.00
2018-11-10T06:35:15.042Z,92.10
2018-11-10T06:37:43.231Z,93.70
2018-11-10T06:40:12.731Z,94.90
2018-11-10T06:42:41.315Z,95.30
2018-11-10T06:45:09.470Z,94.70
2018-11-10T06:47:38.000Z,96.90
2018-11-10T06:50:07.605Z,96.30
2018-11-10T06:52:35.816Z,97.70
2018-11-10T06:55:04.460Z,97.70
2018-11-10T06:57:32.659Z,97.80
2018-11-10T07:00:00.861Z,99.90
2018-11-10T07:02:29.024Z,99.90
2018-11-10T07:04:57.188Z,99.90
2018-11-10T07:07:25.302Z,99.90
2018-11-10T07:09:53.424Z,99.90
2018-11-10T07:12:21.571Z,99.90
2018-11-10T07:14:49.684Z,99.90
2018-11-10T07:17:17.821Z,99.90
2018-11-10T07:19:45.966Z,99.90
2018-11-10T07:22:14.127Z,99.90
2018-11-10T07:24:42.254Z,99.90
2018-11-10T07:27:10.381Z,99.90
2018-11-10T07:29:38.527Z,99.90
2018-11-10T07:32:06.768Z,99.90
2018-11-10T07:34:34.832Z,99.90
2018-11-10T07:37:02.986Z,99.90
2018-11-10T07:41:59.089Z,99.90
2018-11-10T07:44:27.289Z,99.90
2018-11-10T07:46:55.441Z,99.90
2018-11-10T07:49:23.717Z,99.90
2018-11-10T07:51:51.821Z,99.90
2018-11-10T07:54:19.963Z,99.90
2018-11-10T07:56:48.067Z,99.90
2018-11-10T07:59:16.228Z,99.90
2018-11-10T08:01:44.375Z,99.90
2018-11-10T08:04:12.569Z,99.90
2018-11-10T08:06:40.671Z,99.90
2018-11-10T08:09:09.726Z,99.80
2018-11-10T08:11:37.958Z,96.20
2018-11-10T08:14:06.143Z,96.80
2018-11-10T08:16:34.331Z,98.30
2018-11-10T08:19:02.735Z,97.70
2018-11-10T08:21:30.907Z,96.00
2018-11-10T08:23:59.163Z,97.10
2018-11-10T08:26:27.330Z,97.10
2018-11-10T08:28:55.587Z,96.40
2018-11-10T08:31:23.775Z,93.20
2018-11-10T08:33:51.839Z,94.30
2018-11-10T08:36:20.235Z,93.20
2018-11-10T08:38:48.369Z,91.90
2018-11-10T08:41:16.599Z,91.90
2018-11-10T08:43:44.715Z,91.70
2018-11-10T08:46:12.917Z,91.50
2018-11-10T08:48:41.340Z,91.20
2018-11-10T08:51:09.765Z,86.60
2018-11-10T08:53:37.864Z,77.70
2018-11-10T08:56:06.588Z,74.40
2018-11-10T08:58:34.737Z,74.10
2018-11-10T09:01:02.896Z,73.20
2018-11-10T09:03:31.086Z,72.60
2018-11-10T09:05:59.239Z,71.00
2018-11-10T09:08:27.459Z,68.90
2018-11-10T09:10:55.584Z,68.20
2018-11-10T09:13:23.768Z,66.50
2018-11-10T09:15:51.915Z,66.60
2018-11-10T09:18:20.065Z,66.40
2018-11-10T09:20:48.332Z,65.00
2018-11-10T09:23:16.645Z,66.10
2018-11-10T09:25:44.738Z,57.60
2018-11-10T09:28:12.860Z,60.00
2018-11-10T09:30:41.039Z,59.00
2018-11-10T09:33:09.158Z,57.10
2018-11-10T09:35:37.283Z,46.90
2018-11-10T09:38:06.096Z,44.50
2018-11-10T09:40:34.311Z,40.10
2018-11-10T09:43:02.500Z,40.20
2018-11-10T09:45:30.655Z,41.40
2018-11-10T09:47:58.827Z,38.70
2018-11-10T09:50:27.011Z,38.60
2018-11-10T09:52:55.286Z,40.10
2018-11-10T09:55:23.469Z,38.60
2018-11-10T09:57:51.611Z,37.00
2018-11-10T10:00:21.952Z,36.10
2018-11-10T10:02:50.587Z,33.50
2018-11-10T10:05:18.390Z,29.60
2018-11-10T10:07:46.655Z,27.60
2018-11-10T10:10:15.930Z,27.60
2018-11-10T10:12:44.535Z,28.90
2018-11-10T10:15:13.944Z,28.00
2018-11-10T10:17:43.057Z,24.80
2018-11-10T10:20:13.730Z,22.20
2018-11-10T10:22:42.088Z,21.70
2018-11-10T10:25:11.508Z,21.80
2018-11-10T10:27:39.640Z,17.10
2018-11-10T10:30:12.942Z,15.40
2018-11-10T10:32:41.152Z,14.70
2018-11-10T10:35:09.388Z,15.20
2018-11-10T10:40:06.866Z,11.90
2018-11-10T10:42:35.268Z,12.10
2018-11-10T10:45:03.520Z,8.20
2018-11-10T10:47:32.458Z,8.20
2018-11-10T10:50:00.727Z,7.00
2018-11-10T10:52:28.871Z,7.40
2018-11-10T10:54:57.097Z,6.90
2018-11-10T10:57:25.228Z,5.30
2018-11-10T10:59:53.380Z,3.30
2018-11-10T11:02:26.979Z,1.90
2018-11-10T11:04:56.240Z,2.40
2018-11-10T11:07:25.542Z,1.60
2018-11-10T11:09:53.794Z,1.00
2018-11-10T11:12:21.969Z,1.00
2018-11-10T11:14:50.108Z,1.00
2018-11-10T11:17:18.247Z,1.00
2018-11-10T11:19:46.432Z,1.00
2018-11-10T11:22:14.569Z,1.00
2018-11-10T11:24:42.744Z,1.00
2018-11-10T11:27:10.874Z,1.00
2018-11-10T11:29:39.127Z,1.00
2018-11-10T11:32:07.252Z,1.00
2018-11-10T11:34:35.384Z,1.00
2018-11-10T11:37:03.632Z,1.00
2018-11-10T11:39:31.839Z,1.00
2018-11-10T11:41:59.956Z,1.00
2018-11-10T11:44:28.085Z,1.00
2018-11-10T11:46:56.257Z,1.00
2018-11-10T11:49:24.403Z,1.00
2018-11-10T11:51:52.551Z,1.00
2018-11-10T11:54:20.683Z,1.00
2018-11-10T11:56:48.808Z,1.00
2018-11-10T11:59:16.965Z,1.00
2018-11-10T12:01:45.096Z,1.00
2018-11-10T12:04:13.288Z,1.00
2018-11-10T12:06:41.607Z,1.00
2018-11-10T12:09:10.752Z,1.00
2018-11-10T12:11:38.940Z,1.00
2018-11-10T12:14:07.156Z,1.00
2018-11-10T12:16:35.348Z,1.00
2018-11-10T12:19:03.431Z,1.00
2018-11-10T12:21:31.601Z,1.00
2018-11-10T12:23:59.740Z,1.00
2018-11-10T12:26:27.917Z,1.00
2018-11-10T12:28:56.088Z,1.00
2018-11-10T12:31:24.334Z,1.00
2018-11-10T12:33:52.574Z,1.00
2018-11-10T12:36:20.716Z,1.00
2018-11-10T12:38:49.058Z,1.00
2018-11-10T12:41:17.149Z,1.00
2018-11-10T12:43:45.280Z,1.00
2018-11-10T12:46:13.449Z,1.00
2018-11-10T12:48:41.579Z,1.00
2018-11-10T12:51:09.730Z,1.00
2018-11-10T12:53:37.971Z,1.00
2018-11-10T12:56:06.425Z,1.00
2018-11-10T12:58:34.547Z,1.00
2018-11-10T13:01:02.730Z,1.00
2018-11-10T13:03:30.937Z,1.00
2018-11-10T13:05:58.998Z,1.00
2018-11-10T13:08:27.137Z,1.00
2018-11-10T13:10:55.303Z,1.00
2018-11-10T13:13:23.505Z,1.00
2018-11-10T13:15:51.655Z,1.00
2018-11-10T13:18:19.793Z,1.00
2018-11-10T13:20:48.015Z,1.00
2018-11-10T13:23:16.128Z,1.00
2018-11-10T13:25:44.256Z,1.00
2018-11-10T13:28:12.409Z,1.00
2018-11-10T13:30:40.612Z,1.00
2018-11-10T13:33:09.004Z,1.00
2018-11-10T13:35:37.141Z,1.00
2018-11-10T13:38:05.403Z,1.00
2018-11-10T13:40:33.545Z,1.00
2018-11-10T13:43:01.708Z,1.00
2018-11-10T13:45:29.850Z,1.00
2018-11-10T13:47:58.003Z,1.00
2018-11-10T13:50:26.199Z,1.00
2018-11-10T13:52:54.421Z,1.00
2018-11-10T13:55:22.447Z,1.00
2018-11-10T13:57:50.572Z,1.00
2018-11-10T14:00:19.269Z,1.00
2018-11-10T14:02:47.400Z,1.00
2018-11-10T14:05:15.663Z,1.00
2018-11-10T14:07:43.792Z,1.00
2018-11-10T14:10:13.144Z,1.00
2018-11-10T14:12:42.244Z,1.00
2018-11-10T14:15:10.315Z,1.00
2018-11-10T14:17:38.919Z,1.00
2018-11-10T14:20:09.067Z,1.00
2018-11-10T14:22:37.211Z,1.00
2018-11-10T14:25:07.219Z,1.00
2018-11-10T14:27:35.382Z,1.00
2018-11-10T14:30:03.841Z,1.00
2018-11-10T14:32:31.986Z,1.00
2018-11-10T14:35:00.142Z,1.00
2018-11-10T14:37:28.292Z,1.00
2018-11-10T14:39:56.449Z,1.00
2018-11-10T14:42:24.617Z,1.00
2018-11-10T14:44:52.751Z,3.50
2018-11-10T14:47:21.001Z,3.90
2018-11-10T14:49:49.212Z,6.10
2018-11-10T14:52:17.448Z,8.00
2018-11-10T14:54:45.548Z,7.90
2018-11-10T14:57:13.693Z,8.40
2018-11-10T14:59:41.895Z,11.50
2018-11-10T15:02:10.058Z,17.30
2018-11-10T15:04:38.269Z,18.20
2018-11-10T15:07:06.348Z,18.30
2018-11-10T15:09:34.509Z,20.10
2018-11-10T15:12:02.719Z,25.00
2018-11-10T15:14:30.977Z,26.50
2018-11-10T15:16:59.220Z,28.80
2018-11-10T15:19:27.384Z,35.10
2018-11-10T15:21:55.572Z,39.30
2018-11-10T15:24:23.811Z,43.10
2018-11-10T15:26:52.023Z,47.40
2018-11-10T15:29:20.212Z,48.40
2018-11-10T15:31:48.352Z,54.80
2018-11-10T15:34:16.580Z,54.60
2018-11-10T15:36:44.724Z,59.50
2018-11-10T15:39:12.906Z,61.10
2018-11-10T15:41:41.064Z,62.70
2018-11-10T15:44:09.188Z,62.70
2018-11-10T15:46:37.366Z,63.50
2018-11-10T15:49:05.580Z,67.80
2018-11-10T15:51:33.730Z,73.10
2018-11-10T15:54:01.916Z,72.30
2018-11-10T15:56:30.104Z,78.80
2018-11-10T15:58:58.309Z,78.20
2018-11-10T16:01:26.468Z,80.70
2018-11-10T16:03:54.600Z,80.30
2018-11-10T16:06:22.830Z,81.90
2018-11-10T16:08:50.956Z,85.70
2018-11-10T16:11:19.126Z,78.20
2018-11-10T16:13:47.255Z,76.80
2018-11-10T16:16:15.396Z,71.90
2018-11-10T16:18:43.704Z,70.60
2018-11-10T16:21:11.948Z,70.00
2018-11-10T16:23:40.187Z,68.90
2018-11-10T16:26:08.359Z,64.30
2018-11-10T16:28:36.655Z,61.80
2018-11-10T16:31:04.901Z,62.10
2018-11-10T16:33:33.056Z,62.00
2018-11-10T16:36:01.226Z,59.90
2018-11-10T16:38:29.458Z,60.00
2018-11-10T16:40:57.588Z,59.50
2018-11-10T16:43:25.761Z,59.80
2018-11-10T16:45:53.866Z,60.00
2018-11-10T16:48:22.125Z,59.80
2018-11-10T16:50:50.256Z,60.00
2018-11-10T16:53:18.491Z,61.80
2018-11-10T16:55:46.586Z,62.10
2018-11-10T16:58:14.775Z,61.20
2018-11-10T17:00:42.909Z,62.50
2018-11-10T17:03:11.099Z,64.50
2018-11-10T17:05:39.241Z,58.90
2018-11-10T17:08:07.394Z,60.30
2018-11-10T17:10:35.539Z,60.70
2018-11-10T17:13:03.708Z,60.30
2018-11-10T17:15:31.899Z,56.50
2018-11-10T17:18:00.070Z,57.20
2018-11-10T17:20:28.217Z,59.20
2018-11-10T17:22:56.394Z,60.00
2018-11-10T17:25:24.527Z,61.80
2018-11-10T17:27:52.694Z,59.80
2018-11-10T17:30:21.421Z,58.60
2018-11-10T17:32:49.471Z,58.80
2018-11-10T17:35:17.647Z,59.90
2018-11-10T17:37:45.966Z,57.60
2018-11-10T17:40:15.002Z,56.20
2018-11-10T17:42:43.096Z,53.20
2018-11-10T17:45:12.713Z,52.60
2018-11-10T17:47:41.370Z,52.90
2018-11-10T17:50:10.702Z,54.00
2018-11-10T17:52:39.229Z,52.50
2018-11-10T17:55:07.944Z,50.90
2018-11-10T17:57:36.081Z,51.30
2018-11-10T18:00:04.292Z,46.80
2018-11-10T18:02:32.465Z,46.40
2018-11-10T18:05:00.721Z,46.70
2018-11-10T18:07:28.933Z,49.00
2018-11-10T18:09:57.095Z,48.40
2018-11-10T18:12:25.232Z,48.20
2018-11-10T18:14:53.397Z,49.20
2018-11-10T18:17:21.546Z,47.50
2018-11-10T18:19:49.717Z,47.70
2018-11-10T18:22:17.857Z,44.90
2018-11-10T18:24:46.029Z,44.70
2018-11-10T18:27:14.240Z,44.60
2018-11-10T18:29:42.392Z,43.90
2018-11-10T18:32:10.554Z,43.60
2018-11-10T18:34:38.705Z,44.10
2018-11-10T18:37:06.990Z,42.10
2018-11-10T18:39:35.306Z,42.30
2018-11-10T18:42:03.286Z,43.60
2018-11-10T18:44:31.445Z,43.00
2018-11-10T18:46:59.572Z,41.60
2018-11-10T18:49:27.739Z,42.00
2018-11-10T18:51:55.892Z,43.70
2018-11-10T18:54:24.045Z,44.20
2018-11-10T18:56:52.335Z,48.00
2018-11-10T18:59:20.422Z,51.40
2018-11-10T19:01:48.577Z,63.20
2018-11-10T19:04:16.723Z,63.00
2018-11-10T19:06:44.904Z,64.40
2018-11-10T19:09:13.551Z,64.90
2018-11-10T19:11:41.675Z,75.20
2018-11-10T19:14:10.026Z,80.80
2018-11-10T19:16:38.178Z,81.70
2018-11-10T19:19:07.252Z,81.40
2018-11-10T19:21:35.509Z,79.10
2018-11-10T19:24:03.751Z,86.50
2018-11-10T19:26:31.874Z,84.10
2018-11-10T19:29:00.049Z,83.90
2018-11-10T19:31:28.184Z,82.90
2018-11-10T19:33:56.312Z,84.20
2018-11-10T19:36:24.483Z,84.30
2018-11-10T19:38:52.642Z,86.90
2018-11-10T19:41:20.896Z,90.00
2018-11-10T19:43:49.279Z,89.20
2018-11-10T19:46:17.437Z,88.50
2018-11-10T19:48:45.585Z,90.20
2018-11-10T19:51:15.089Z,84.40
2018-11-10T19:53:43.667Z,86.60
2018-11-10T19:56:12.187Z,90.80
2018-11-10T19:58:40.452Z,91.80
2018-11-10T20:01:09.491Z,92.80
2018-11-10T20:03:37.705Z,93.00
2018-11-10T20:06:05.848Z,96.10
2018-11-10T20:08:34.016Z,94.90
2018-11-10T20:11:02.180Z,97.00
2018-11-10T20:15:58.732Z,96.40
2018-11-10T20:18:26.868Z,98.20
2018-11-10T20:20:55.028Z,99.90
2018-11-10T20:23:23.183Z,99.90
2018-11-10T20:25:51.328Z,97.60
2018-11-10T20:28:19.477Z,98.50
2018-11-10T20:30:47.641Z,99.60
2018-11-10T20:33:15.791Z,99.90
2018-11-10T20:35:43.964Z,99.90
2018-11-10T20:38:12.121Z,99.90
2018-11-10T20:40:40.244Z,99.90
2018-11-10T20:43:08.391Z,99.90
2018-11-10T20:45:36.548Z,99.90
2018-11-10T20:48:04.928Z,99.90
2018-11-10T20:50:33.576Z,99.90
2018-11-10T20:53:01.733Z,99.90
2018-11-10T20:55:29.875Z,99.90
2018-11-10T20:57:57.999Z,99.90
2018-11-10T21:00:26.180Z,99.90
2018-11-10T21:02:54.284Z,99.90
2018-11-10T21:05:22.468Z,99.90
2018-11-10T21:07:50.644Z,99.90
2018-11-10T21:10:19.943Z,99.90
2018-11-10T21:12:48.979Z,99.90
2018-11-10T21:15:17.750Z,99.90
2018-11-10T21:17:46.118Z,99.90
2018-11-10T21:22:42.749Z,99.90
2018-11-10T21:25:12.561Z,99.90
2018-11-10T21:27:41.046Z,99.90
2018-11-10T21:30:10.538Z,99.90
2018-11-10T21:32:38.614Z,99.90
2018-11-10T21:35:07.535Z,99.90
2018-11-10T21:40:04.312Z,99.90
2018-11-10T21:42:32.448Z,99.90
2018-11-10T21:45:00.622Z,99.90
2018-11-10T21:47:28.791Z,99.90
2018-11-10T21:49:56.912Z,99.90
2018-11-10T21:52:25.053Z,99.90
2018-11-10T21:54:53.186Z,99.90
2018-11-10T21:57:21.337Z,99.90
2018-11-10T21:59:49.611Z,99.90
2018-11-10T22:02:17.826Z,99.90
2018-11-10T22:04:46.764Z,99.90
2018-11-10T22:07:14.910Z,99.90
2018-11-10T22:09:43.059Z,99.90
2018-11-10T22:12:11.169Z,99.90
2018-11-10T22:14:39.324Z,99.90
2018-11-10T22:17:07.463Z,99.90
2018-11-10T22:19:35.644Z,99.90
2018-11-10T22:22:04.145Z,99.90
2018-11-10T22:24:32.274Z,99.90
2018-11-10T22:27:00.488Z,99.90
2018-11-10T22:29:28.660Z,99.90
2018-11-10T22:31:56.852Z,99.90
2018-11-10T22:34:24.968Z,99.90
2018-11-10T22:36:53.182Z,99.90
2018-11-10T22:39:21.304Z,99.90
2018-11-10T22:41:49.456Z,99.90
2018-11-10T22:44:17.580Z,99.90
2018-11-10T22:46:45.841Z,99.90
2018-11-10T22:49:14.555Z,99.90
2018-11-10T22:51:42.680Z,99.90
2018-11-10T22:54:10.832Z,99.90
2018-11-10T22:56:38.957Z,99.90
2018-11-10T22:59:07.075Z,99.90
2018-11-10T23:01:35.240Z,99.90
2018-11-10T23:04:03.391Z,99.90
2018-11-10T23:06:31.552Z,99.90
2018-11-10T23:08:59.716Z,99.90
2018-11-10T23:11:27.849Z,99.90
2018-11-10T23:13:56.012Z,99.90
2018-11-10T23:16:24.156Z,99.90
2018-11-10T23:18:52.283Z,99.90
2018-11-10T23:21:20.472Z,99.90
2018-11-10T23:23:48.617Z,99.90
2018-11-10T23:26:16.776Z,99.90
2018-11-10T23:28:44.903Z,99.90
2018-11-10T23:31:13.050Z,99.90
2018-11-10T23:33:41.180Z,99.90
2018-11-10T23:36:09.312Z,99.90
2018-11-10T23:38:37.464Z,99.90
2018-11-10T23:41:05.987Z,99.90
2018-11-10T23:43:34.147Z,99.90
2018-11-10T23:46:02.322Z,99.90
2018-11-10T23:48:30.459Z,99.90
2018-11-10T23:50:58.603Z,99.90
2018-11-10T23:53:26.768Z,99.90
2018-11-10T23:55:54.935Z,99.90
2018-11-10T23:58:23.081Z,99.90
